createdAt,value
2023-02-23T00:00:29.386Z,9.00
2023-02-23T00:03:01.343Z,9.00
2023-02-23T00:05:31.663Z,9.00
2023-02-23T00:07:59.794Z,9.00
2023-02-23T00:10:30.557Z,8.90
2023-02-23T00:12:59.630Z,9.00
2023-02-23T00:15:29.856Z,9.00
2023-02-23T00:17:59.601Z,9.00
2023-02-23T00:20:28.393Z,9.00
2023-02-23T00:22:57.386Z,9.00
2023-02-23T00:25:26.308Z,9.00
2023-02-23T00:27:54.891Z,9.00
2023-02-23T00:30:24.429Z,9.00
2023-02-23T00:32:53.442Z,9.00
2023-02-23T00:35:24.859Z,9.00
2023-02-23T00:37:53.117Z,9.00
2023-02-23T00:40:23.077Z,9.00
2023-02-23T00:42:52.289Z,9.00
2023-02-23T00:45:21.338Z,9.00
2023-02-23T00:47:49.494Z,9.00
2023-02-23T00:50:19.383Z,9.00
2023-02-23T00:52:49.157Z,9.00
2023-02-23T00:55:17.329Z,9.00
2023-02-23T00:57:45.421Z,8.90
2023-02-23T01:00:20.285Z,8.90
2023-02-23T01:02:50.321Z,8.90
2023-02-23T01:05:20.372Z,8.90
2023-02-23T01:07:51.061Z,8.90
2023-02-23T01:10:21.846Z,8.90
2023-02-23T01:12:51.513Z,8.90
2023-02-23T01:15:21.404Z,8.90
2023-02-23T01:17:49.516Z,8.90
2023-02-23T01:20:19.492Z,8.90
2023-02-23T01:22:51.389Z,9.00
2023-02-23T01:25:19.868Z,9.00
2023-02-23T01:27:47.876Z,9.00
2023-02-23T01:30:16.809Z,9.00
2023-02-23T01:32:45.463Z,9.00
2023-02-23T01:35:14.372Z,9.00
2023-02-23T01:37:44.100Z,9.00
2023-02-23T01:40:16.760Z,9.00
2023-02-23T01:42:47.577Z,8.90
2023-02-23T01:45:24.743Z,8.90
2023-02-23T01:47:55.592Z,8.90
2023-02-23T01:50:24.549Z,8.90
2023-02-23T01:52:53.852Z,8.90
2023-02-23T01:55:25.785Z,8.80
2023-02-23T01:57:57.392Z,8.80
2023-02-23T02:00:28.330Z,8.70
2023-02-23T02:02:58.219Z,8.70
2023-02-23T02:05:29.782Z,8.60
2023-02-23T02:07:59.628Z,8.60
2023-02-23T02:10:49.591Z,8.50
2023-02-23T02:13:22.292Z,8.40
2023-02-23T02:16:29.063Z,8.40
2023-02-23T02:19:34.767Z,8.30
2023-02-23T02:22:30.134Z,8.20
2023-02-23T02:25:36.160Z,8.20
2023-02-23T02:28:27.362Z,8.10
2023-02-23T02:31:36.255Z,8.00
2023-02-23T02:34:49.550Z,8.00
2023-02-23T02:37:34.103Z,8.00
2023-02-23T02:40:18.812Z,7.90
2023-02-23T02:43:11.513Z,7.90
2023-02-23T02:45:45.310Z,7.80
2023-02-23T02:48:21.106Z,7.80
2023-02-23T02:50:56.536Z,7.70
2023-02-23T02:53:34.951Z,7.70
2023-02-23T02:56:06.507Z,7.70
2023-02-23T02:58:39.090Z,7.60
2023-02-23T03:01:31.696Z,7.50
2023-02-23T03:04:19.616Z,7.50
2023-02-23T03:07:11.588Z,7.40
2023-02-23T03:10:09.020Z,7.30
2023-02-23T03:13:04.640Z,7.30
2023-02-23T03:16:01.287Z,7.20
2023-02-23T03:19:00.129Z,7.20
2023-02-23T03:21:52.543Z,7.10
2023-02-23T03:24:45.542Z,7.10
2023-02-23T03:27:39.417Z,7.00
2023-02-23T03:30:35.618Z,7.00
2023-02-23T03:33:27.025Z,6.90
2023-02-23T03:36:17.330Z,6.90
2023-02-23T03:39:08.557Z,6.80
2023-02-23T03:41:56.149Z,6.80
2023-02-23T03:44:49.899Z,6.70
2023-02-23T03:47:37.345Z,6.70
2023-02-23T03:50:26.433Z,6.60
2023-02-23T03:53:16.852Z,6.60
2023-02-23T03:56:06.641Z,6.50
2023-02-23T03:58:56.256Z,6.50
2023-02-23T04:01:44.803Z,6.40
2023-02-23T04:04:30.994Z,6.40
2023-02-23T04:07:19.415Z,6.40
2023-02-23T04:10:04.920Z,6.30
2023-02-23T04:12:56.094Z,6.20
2023-02-23T04:15:27.801Z,6.20
2023-02-23T04:17:57.621Z,6.20
2023-02-23T04:20:26.253Z,6.10
2023-02-23T04:22:54.442Z,6.10
2023-02-23T04:25:23.135Z,6.00
2023-02-23T04:27:51.781Z,6.00
2023-02-23T04:30:20.519Z,6.00
2023-02-23T04:32:48.860Z,5.90
2023-02-23T04:35:18.578Z,5.90
2023-02-23T04:37:46.890Z,5.80
2023-02-23T04:40:15.390Z,5.80
2023-02-23T04:42:43.542Z,5.80
2023-02-23T04:45:12.461Z,5.70
2023-02-23T04:47:40.584Z,5.70
2023-02-23T04:50:10.217Z,5.60
2023-02-23T04:52:39.977Z,5.60
2023-02-23T04:55:09.389Z,5.60
2023-02-23T04:57:37.486Z,5.60
2023-02-23T05:00:07.004Z,5.50
2023-02-23T05:02:35.077Z,5.50
2023-02-23T05:05:03.261Z,5.50
2023-02-23T05:07:31.328Z,5.40
2023-02-23T05:10:00.804Z,5.40
2023-02-23T05:12:28.928Z,5.40
2023-02-23T05:14:57.105Z,5.30
2023-02-23T05:17:25.450Z,5.30
2023-02-23T05:19:53.545Z,5.40
2023-02-23T05:22:21.677Z,5.40
2023-02-23T05:24:50.433Z,5.40
2023-02-23T05:27:19.955Z,5.40
2023-02-23T05:29:47.930Z,5.50
2023-02-23T05:32:16.051Z,5.50
2023-02-23T05:34:44.150Z,5.60
2023-02-23T05:37:12.293Z,5.60
2023-02-23T05:39:40.352Z,5.70
2023-02-23T05:42:08.349Z,5.70
2023-02-23T05:44:38.378Z,5.80
2023-02-23T05:47:06.462Z,5.80
2023-02-23T05:49:34.591Z,5.80
2023-02-23T05:52:02.660Z,5.80
2023-02-23T05:54:30.606Z,5.80
2023-02-23T05:57:01.477Z,5.90
2023-02-23T05:59:29.733Z,5.80
2023-02-23T06:01:59.201Z,5.80
2023-02-23T06:04:27.205Z,5.80
2023-02-23T06:06:55.236Z,5.80
2023-02-23T06:09:23.188Z,5.80
2023-02-23T06:11:51.538Z,5.80
2023-02-23T06:14:19.565Z,5.80
2023-02-23T06:16:48.895Z,5.80
2023-02-23T06:19:18.354Z,5.80
2023-02-23T06:21:46.748Z,5.80
2023-02-23T06:24:14.831Z,5.80
2023-02-23T06:26:44.439Z,5.80
2023-02-23T06:29:14.765Z,5.80
2023-02-23T06:31:42.896Z,5.90
2023-02-23T06:34:11.504Z,5.90
2023-02-23T06:36:40.991Z,5.90
2023-02-23T06:39:09.049Z,6.00
2023-02-23T06:41:37.771Z,6.00
2023-02-23T06:44:06.974Z,6.00
2023-02-23T06:46:36.265Z,6.10
2023-02-23T06:49:04.602Z,6.10
2023-02-23T06:51:32.838Z,6.20
2023-02-23T06:54:02.195Z,6.20
2023-02-23T06:56:30.189Z,6.30
2023-02-23T06:58:58.156Z,6.40
2023-02-23T07:01:26.205Z,6.50
2023-02-23T07:03:54.245Z,6.60
2023-02-23T07:06:22.282Z,6.70
2023-02-23T07:08:50.321Z,6.80
2023-02-23T07:11:20.305Z,6.90
2023-02-23T07:13:48.450Z,7.10
2023-02-23T07:16:16.573Z,7.20
2023-02-23T07:18:44.599Z,7.30
2023-02-23T07:21:12.576Z,7.40
2023-02-23T07:23:40.512Z,7.60
2023-02-23T07:26:09.761Z,7.70
2023-02-23T07:28:39.378Z,7.90
2023-02-23T07:31:07.451Z,8.00
2023-02-23T07:33:35.709Z,8.10
2023-02-23T07:36:03.785Z,8.20
2023-02-23T07:38:32.020Z,8.40
2023-02-23T07:40:59.978Z,8.40
2023-02-23T07:43:28.169Z,8.60
2023-02-23T07:46:01.100Z,8.60
2023-02-23T07:48:30.405Z,8.70
2023-02-23T07:50:58.341Z,8.80
2023-02-23T07:53:27.794Z,8.80
2023-02-23T07:55:59.253Z,8.80
2023-02-23T07:58:27.449Z,8.70
2023-02-23T08:00:57.374Z,8.70
2023-02-23T08:03:26.368Z,8.70
2023-02-23T08:05:55.290Z,8.80
2023-02-23T08:08:23.279Z,9.00
2023-02-23T08:10:52.298Z,9.20
2023-02-23T08:13:20.329Z,9.40
2023-02-23T08:15:48.914Z,9.60
2023-02-23T08:18:18.659Z,9.80
2023-02-23T08:20:46.883Z,10.00
2023-02-23T08:23:16.924Z,10.20
2023-02-23T08:25:45.047Z,10.30
2023-02-23T08:28:13.680Z,10.40
2023-02-23T08:30:42.531Z,10.40
2023-02-23T08:33:10.557Z,10.50
2023-02-23T08:35:39.889Z,10.70
2023-02-23T08:38:07.892Z,10.90
2023-02-23T08:40:35.997Z,11.10
2023-02-23T08:43:04.106Z,11.30
2023-02-23T08:45:32.051Z,11.40
2023-02-23T08:47:59.991Z,11.50
2023-02-23T08:50:28.088Z,11.60
2023-02-23T08:52:57.486Z,11.70
2023-02-23T08:55:25.420Z,11.70
2023-02-23T08:57:53.420Z,11.80
2023-02-23T09:00:22.573Z,11.90
2023-02-23T09:02:50.647Z,12.00
2023-02-23T09:05:18.976Z,12.10
2023-02-23T09:07:47.625Z,12.10
2023-02-23T09:10:19.768Z,12.20
2023-02-23T09:12:47.909Z,12.20
2023-02-23T09:15:15.896Z,12.20
2023-02-23T09:17:44.927Z,12.20
2023-02-23T09:20:15.838Z,12.30
2023-02-23T09:22:45.522Z,12.30
2023-02-23T09:25:14.576Z,12.30
2023-02-23T09:27:43.922Z,12.30
2023-02-23T09:30:17.913Z,12.30
2023-02-23T09:32:46.472Z,12.40
2023-02-23T09:35:18.002Z,12.30
2023-02-23T09:37:47.903Z,12.30
2023-02-23T09:40:18.672Z,12.30
2023-02-23T09:42:59.017Z,12.30
2023-02-23T09:45:34.652Z,12.30
2023-02-23T09:48:11.621Z,12.30
2023-02-23T09:50:43.258Z,12.30
2023-02-23T09:53:29.262Z,12.40
2023-02-23T09:55:58.935Z,12.40
2023-02-23T09:58:30.876Z,12.40
2023-02-23T10:01:39.770Z,12.40
2023-02-23T10:04:14.461Z,12.40
2023-02-23T10:06:46.201Z,12.40
2023-02-23T10:09:22.893Z,12.40
2023-02-23T10:11:57.138Z,12.50
2023-02-23T10:14:44.975Z,12.50
2023-02-23T10:17:22.325Z,12.70
2023-02-23T10:19:58.923Z,12.70
2023-02-23T10:22:28.673Z,12.80
2023-02-23T10:25:02.654Z,12.90
2023-02-23T10:27:37.637Z,13.00
2023-02-23T10:30:18.896Z,13.20
2023-02-23T10:32:54.425Z,13.30
2023-02-23T10:35:24.587Z,13.40
2023-02-23T10:37:54.597Z,13.40
2023-02-23T10:40:27.828Z,13.50
2023-02-23T10:42:58.379Z,13.50
2023-02-23T10:45:30.326Z,13.40
2023-02-23T10:48:02.143Z,13.40
2023-02-23T10:50:31.542Z,13.40
2023-02-23T10:53:01.374Z,13.30
2023-02-23T10:55:31.162Z,13.40
2023-02-23T10:58:04.626Z,13.40
2023-02-23T11:00:36.973Z,13.30
2023-02-23T11:03:19.896Z,13.30
2023-02-23T11:05:50.589Z,13.40
2023-02-23T11:08:29.437Z,13.40
2023-02-23T11:11:03.806Z,13.40
2023-02-23T11:13:37.056Z,13.40
2023-02-23T11:16:11.218Z,13.40
2023-02-23T11:18:42.433Z,13.40
2023-02-23T11:21:13.857Z,13.50
2023-02-23T11:23:42.932Z,13.40
2023-02-23T11:26:25.215Z,13.40
2023-02-23T11:28:56.305Z,13.50
2023-02-23T11:31:34.709Z,13.40
2023-02-23T11:34:04.551Z,13.40
2023-02-23T11:36:34.975Z,13.40
2023-02-23T11:39:07.974Z,13.40
2023-02-23T11:41:37.284Z,13.40
2023-02-23T11:44:06.414Z,13.40
2023-02-23T11:46:39.723Z,13.40
2023-02-23T11:49:09.985Z,13.30
2023-02-23T11:51:41.136Z,13.30
2023-02-23T11:54:21.310Z,13.20
2023-02-23T11:56:52.441Z,13.20
2023-02-23T11:59:27.673Z,13.20
2023-02-23T12:02:05.630Z,13.20
2023-02-23T12:04:37.110Z,13.20
2023-02-23T12:07:26.963Z,13.20
2023-02-23T12:10:03.186Z,13.30
2023-02-23T12:12:38.734Z,13.40
2023-02-23T12:15:16.908Z,13.50
2023-02-23T12:17:50.561Z,13.60
2023-02-23T12:20:22.819Z,13.60
2023-02-23T12:22:56.156Z,13.70
2023-02-23T12:25:29.999Z,13.70
2023-02-23T12:28:18.165Z,13.70
2023-02-23T12:30:52.020Z,13.80
2023-02-23T12:33:30.211Z,13.70
2023-02-23T12:36:02.993Z,13.80
2023-02-23T12:38:42.244Z,13.90
2023-02-23T12:41:13.588Z,13.90
2023-02-23T12:43:49.367Z,13.90
2023-02-23T12:46:22.812Z,13.80
2023-02-23T12:49:01.310Z,13.70
2023-02-23T12:51:34.212Z,13.70
2023-02-23T12:54:02.739Z,13.70
2023-02-23T12:56:45.179Z,13.70
2023-02-23T12:59:37.959Z,13.80
2023-02-23T13:02:15.667Z,13.80
2023-02-23T13:05:15.497Z,13.90
2023-02-23T13:08:01.896Z,13.90
2023-02-23T13:10:47.085Z,13.90
2023-02-23T13:13:26.755Z,13.90
2023-02-23T13:16:01.599Z,13.80
2023-02-23T13:18:35.896Z,13.80
2023-02-23T13:21:11.120Z,13.80
2023-02-23T13:23:43.991Z,13.80
2023-02-23T13:26:24.828Z,13.70
2023-02-23T13:28:58.740Z,13.60
2023-02-23T13:31:29.147Z,13.60
2023-02-23T13:34:00.060Z,13.50
2023-02-23T13:36:32.086Z,13.50
2023-02-23T13:39:23.632Z,13.50
2023-02-23T13:42:00.471Z,13.40
2023-02-23T13:44:33.766Z,13.30
2023-02-23T13:47:09.448Z,13.30
2023-02-23T13:49:45.275Z,13.30
2023-02-23T13:52:24.124Z,13.40
2023-02-23T13:54:57.036Z,13.40
2023-02-23T13:57:26.254Z,13.40
2023-02-23T13:59:54.518Z,13.50
2023-02-23T14:02:38.297Z,13.50
2023-02-23T14:05:16.271Z,13.50
2023-02-23T14:07:48.916Z,13.40
2023-02-23T14:10:21.328Z,13.30
2023-02-23T14:13:09.073Z,13.30
2023-02-23T14:15:49.848Z,13.10
2023-02-23T14:18:33.217Z,13.10
2023-02-23T14:21:09.626Z,13.00
2023-02-23T14:23:51.849Z,12.90
2023-02-23T14:26:45.555Z,12.80
2023-02-23T14:29:26.865Z,12.70
2023-02-23T14:32:03.532Z,12.60
2023-02-23T14:34:46.913Z,12.60
2023-02-23T14:37:21.961Z,12.60
2023-02-23T14:39:54.001Z,12.60
2023-02-23T14:42:25.372Z,12.60
2023-02-23T14:44:55.219Z,12.70
2023-02-23T14:47:26.768Z,12.70
2023-02-23T14:49:58.050Z,12.70
2023-02-23T14:52:28.915Z,12.70
2023-02-23T14:55:25.644Z,12.70
2023-02-23T14:57:55.127Z,12.70
2023-02-23T15:00:27.091Z,12.70
2023-02-23T15:02:57.379Z,12.60
2023-02-23T15:05:27.189Z,12.50
2023-02-23T15:07:58.429Z,12.40
2023-02-23T15:10:31.877Z,12.30
2023-02-23T15:13:01.157Z,12.20
2023-02-23T15:15:30.827Z,12.10
2023-02-23T15:18:02.180Z,12.10
2023-02-23T15:23:04.335Z,12.00
2023-02-23T15:25:40.065Z,11.90
2023-02-23T15:28:19.353Z,11.80
2023-02-23T15:30:48.928Z,11.70
2023-02-23T15:33:23.354Z,11.60
2023-02-23T15:35:55.981Z,11.60
2023-02-23T15:38:42.881Z,11.60
2023-02-23T15:41:23.219Z,11.50
2023-02-23T15:43:51.817Z,11.50
2023-02-23T15:46:25.175Z,11.40
2023-02-23T15:48:55.821Z,11.40
2023-02-23T15:51:33.498Z,11.30
2023-02-23T15:54:04.691Z,11.30
2023-02-23T15:56:36.476Z,11.20
2023-02-23T15:59:08.138Z,11.20
2023-02-23T16:01:44.002Z,11.20
2023-02-23T16:04:18.664Z,11.10
2023-02-23T16:06:55.244Z,11.10
2023-02-23T16:09:29.542Z,11.10
2023-02-23T16:12:04.587Z,11.10
2023-02-23T16:14:36.212Z,11.00
2023-02-23T16:17:11.287Z,11.00
2023-02-23T16:19:41.798Z,10.90
2023-02-23T16:22:22.382Z,10.90
2023-02-23T16:24:58.846Z,10.90
2023-02-23T16:27:30.507Z,10.90
2023-02-23T16:30:03.888Z,10.80
2023-02-23T16:32:38.111Z,10.80
2023-02-23T16:35:16.025Z,10.80
2023-02-23T16:37:53.337Z,10.80
2023-02-23T16:40:21.513Z,10.70
2023-02-23T16:42:53.951Z,10.70
2023-02-23T16:45:23.095Z,10.70
2023-02-23T16:47:52.873Z,10.70
2023-02-23T16:50:22.329Z,10.60
2023-02-23T16:52:52.918Z,10.60
2023-02-23T16:55:26.244Z,10.50
2023-02-23T16:57:58.824Z,10.50
2023-02-23T17:00:29.845Z,10.50
2023-02-23T17:03:00.604Z,10.40
2023-02-23T17:05:30.190Z,10.40
2023-02-23T17:07:59.400Z,10.30
2023-02-23T17:10:30.992Z,10.30
2023-02-23T17:13:04.344Z,10.30
2023-02-23T17:15:35.494Z,10.30
2023-02-23T17:18:04.032Z,10.30
2023-02-23T17:20:32.746Z,10.20
2023-02-23T17:23:03.000Z,10.20
2023-02-23T17:25:31.439Z,10.20
2023-02-23T17:28:01.694Z,10.20
2023-02-23T17:30:30.661Z,10.10
2023-02-23T17:33:00.137Z,10.10
2023-02-23T17:35:28.921Z,10.10
2023-02-23T17:37:56.917Z,10.10
2023-02-23T17:40:29.058Z,10.10
2023-02-23T17:42:58.556Z,10.00
2023-02-23T17:45:28.737Z,10.10
2023-02-23T17:47:57.533Z,10.10
2023-02-23T17:50:27.682Z,10.10
2023-02-23T17:52:55.984Z,10.10
2023-02-23T17:55:24.686Z,10.00
2023-02-23T17:57:53.309Z,10.00
2023-02-23T18:00:22.270Z,10.00
2023-02-23T18:02:51.644Z,10.00
2023-02-23T18:05:20.017Z,9.90
2023-02-23T18:07:48.758Z,9.80
2023-02-23T18:10:17.574Z,9.80
2023-02-23T18:12:45.793Z,9.80
2023-02-23T18:15:13.840Z,9.70
2023-02-23T18:17:42.129Z,9.70
2023-02-23T18:20:15.000Z,9.70
2023-02-23T18:22:43.758Z,9.60
2023-02-23T18:25:21.286Z,9.60
2023-02-23T18:27:53.956Z,9.50
2023-02-23T18:30:23.412Z,9.50
2023-02-23T18:32:52.480Z,9.50
2023-02-23T18:35:22.079Z,9.40
2023-02-23T18:37:50.403Z,9.40
2023-02-23T18:40:23.813Z,9.40
2023-02-23T18:42:52.128Z,9.40
2023-02-23T18:45:20.085Z,9.50
2023-02-23T18:47:48.701Z,9.40
2023-02-23T18:50:19.108Z,9.50
2023-02-23T18:52:50.771Z,9.50
2023-02-23T18:55:19.618Z,9.40
2023-02-23T18:57:48.666Z,9.40
2023-02-23T19:00:18.871Z,9.40
2023-02-23T19:02:47.425Z,9.40
2023-02-23T19:05:16.927Z,9.40
2023-02-23T19:07:45.167Z,9.40
2023-02-23T19:10:16.367Z,9.40
2023-02-23T19:12:44.471Z,9.40
2023-02-23T19:15:13.539Z,9.40
2023-02-23T19:17:42.059Z,9.40
2023-02-23T19:20:14.308Z,9.40
2023-02-23T19:22:42.792Z,9.40
2023-02-23T19:25:14.418Z,9.40
2023-02-23T19:27:45.092Z,9.40
2023-02-23T19:30:14.483Z,9.30
2023-02-23T19:32:43.494Z,9.30
2023-02-23T19:35:15.634Z,9.30
2023-02-23T19:37:48.490Z,9.30
2023-02-23T19:40:19.930Z,9.20
2023-02-23T19:42:50.225Z,9.20
2023-02-23T19:45:19.316Z,9.20
2023-02-23T19:47:47.476Z,9.20
2023-02-23T19:50:18.746Z,9.20
2023-02-23T19:52:47.761Z,9.20
2023-02-23T19:55:16.396Z,9.20
2023-02-23T19:57:44.709Z,9.10
2023-02-23T20:00:15.548Z,9.10
2023-02-23T20:02:43.824Z,9.10
2023-02-23T20:05:12.461Z,9.10
2023-02-23T20:07:40.992Z,9.10
2023-02-23T20:10:13.953Z,9.10
2023-02-23T20:12:42.055Z,9.10
2023-02-23T20:15:11.009Z,9.10
2023-02-23T20:17:40.689Z,9.10
2023-02-23T20:20:11.245Z,9.00
2023-02-23T20:22:41.374Z,9.10
2023-02-23T20:25:16.459Z,9.00
2023-02-23T20:27:45.413Z,9.10
2023-02-23T20:30:15.020Z,9.00
2023-02-23T20:32:45.132Z,9.00
2023-02-23T20:35:15.139Z,9.00
2023-02-23T20:37:43.759Z,9.00
2023-02-23T20:40:17.544Z,9.00
2023-02-23T20:42:47.724Z,8.90
2023-02-23T20:45:17.552Z,8.90
2023-02-23T20:47:51.957Z,8.90
2023-02-23T20:50:21.507Z,8.90
2023-02-23T20:52:50.895Z,8.90
2023-02-23T20:55:19.661Z,8.90
2023-02-23T20:57:48.632Z,8.90
2023-02-23T21:00:22.727Z,8.90
2023-02-23T21:02:55.559Z,8.90
2023-02-23T21:05:25.298Z,8.90
2023-02-23T21:07:56.785Z,8.90
2023-02-23T21:10:24.771Z,8.90
2023-02-23T21:12:53.766Z,8.90
2023-02-23T21:15:21.796Z,8.90
2023-02-23T21:17:50.585Z,8.90
2023-02-23T21:20:21.093Z,8.80
2023-02-23T21:22:50.100Z,8.80
2023-02-23T21:25:20.469Z,8.90
2023-02-23T21:27:49.260Z,8.90
2023-02-23T21:30:19.424Z,8.80
2023-02-23T21:32:48.065Z,8.90
2023-02-23T21:35:17.758Z,8.90
2023-02-23T21:37:47.920Z,8.90
2023-02-23T21:40:20.626Z,8.90
2023-02-23T21:42:50.032Z,8.90
2023-02-23T21:45:19.739Z,8.90
2023-02-23T21:47:48.951Z,8.90
2023-02-23T21:50:18.921Z,8.90
2023-02-23T21:52:53.142Z,8.90
2023-02-23T21:55:22.150Z,8.90
2023-02-23T21:57:50.834Z,8.90
2023-02-23T22:00:20.739Z,8.90
2023-02-23T22:02:49.361Z,8.80
2023-02-23T22:05:19.630Z,8.80
2023-02-23T22:07:53.765Z,8.80
2023-02-23T22:10:25.630Z,8.80
2023-02-23T22:12:55.926Z,8.80
2023-02-23T22:15:27.466Z,8.80
2023-02-23T22:17:56.040Z,8.70
2023-02-23T22:20:24.739Z,8.70
2023-02-23T22:22:54.063Z,8.70
2023-02-23T22:25:22.106Z,8.70
2023-02-23T22:27:50.158Z,8.70
2023-02-23T22:30:20.544Z,8.70
2023-02-23T22:32:48.661Z,8.70
2023-02-23T22:35:17.035Z,8.70
2023-02-23T22:37:45.045Z,8.70
2023-02-23T22:40:15.707Z,8.60
2023-02-23T22:42:48.169Z,8.60
2023-02-23T22:45:17.050Z,8.60
2023-02-23T22:47:45.516Z,8.60
2023-02-23T22:50:17.998Z,8.60
2023-02-23T22:52:46.622Z,8.60
2023-02-23T22:55:16.052Z,8.60
2023-02-23T22:57:44.237Z,8.60
2023-02-23T23:00:15.466Z,8.60
2023-02-23T23:02:43.704Z,8.50
2023-02-23T23:05:13.421Z,8.50
2023-02-23T23:07:41.945Z,8.50
2023-02-23T23:10:12.065Z,8.50
2023-02-23T23:12:41.577Z,8.40
2023-02-23T23:15:15.029Z,8.40
2023-02-23T23:17:48.612Z,8.40
2023-02-23T23:20:22.797Z,8.40
2023-02-23T23:22:50.902Z,8.40
2023-02-23T23:25:22.755Z,8.30
2023-02-23T23:27:53.810Z,8.30
2023-02-23T23:30:25.930Z,8.20
2023-02-23T23:32:54.354Z,8.20
2023-02-23T23:35:23.104Z,8.20
2023-02-23T23:37:51.886Z,8.20
2023-02-23T23:40:24.258Z,8.20
2023-02-23T23:42:55.806Z,8.20
2023-02-23T23:45:25.024Z,8.20
2023-02-23T23:47:53.309Z,8.20
2023-02-23T23:50:26.541Z,8.20
2023-02-23T23:52:55.323Z,8.20
2023-02-23T23:55:23.430Z,8.10
2023-02-23T23:57:53.195Z,8.10
